10:27
Airports
History
Links
Donate
Help keep this website running!
PayPal
Bitcoin
This page is community maintained. The information is intended for PC simulator navigation or reference.
Always use approved charts for navigation.
CYRB
RESOLUTE BAY
RESOLUTE BAY (CYRB)
Resolute, Nunavut, Canada
4
Lat/Lng:74° 43' 0.84" N / 94° 58' 9.6" W
74.7169 / -94.969334
Elevation:215'ft / 66mMSL
ID / ICAO:CYRB
Runways:1
Longest:(17T-35T) 1,979.5m / 6,494ft Gravel
Distance To
Airport ID:
Nearby VORs <50NM
Nearby NDBs
METARUpdated 08-24-17 10:00 GMT
Altimeter: 29.90
Visibility: 15.0 statute miles
Wind: 12 knots (130°)
Temp: 1°c 34°f
Humidity: %

METAR: CYRB 241000Z 13012KT 15SM -RA BKN037 OVC060 01/M00 A2990 RMK SC6SC2 SLP135

(Powered by phpweather)
Runway 17T / 35T
Dimensions:1979.5 x 61m 6494' x 200'ft
Surface:Gravel
Edge Lights:High intensity
Runway 17T [A]Runway 35T [B]
Heading:166°TH 346°TH
Lat:
Lng:
74° 43' 31.96"N
94° 58' 37.51"W
74° 42' 29.72"N
94° 57' 41.69"W
ALS:ODALSSSALR
User Notes and Comments
Google Map
Nearby Airports
4 Little Cornwallis I 58.1 NM
CJY2 NW 323°
4 Arctic Bay 224.1 NM
CJX7 ESE 121°
4 NANISIVIK 231.9 NM
CYSR ESE 121°
4 Grise Fjord 238.3 NM
CYGZ ENE 60°
4 POND INLET 356.8 NM
CYIO (WX) ESE 113°
4 TALOYOAK 358.4 NM
CYYH S 175°
4 EUREKA 388.9 NM
CYEU NNE 20°
VFR Chart
Flight Planning at SkyVector.com